Time;durP1;ratioP1;P1;durP2;ratioP2;P2;SDS_P1;SDS_P2;PMS_P1;PMS_P2;Temp;Humidity;BMP_temperature;BMP_pressure;BME280_temperature;BME280_humidity;BME280_pressure;Samples;Min_cycle;Max_cycle;Signal;HPM_P1;HPM_P2
2022/01/22 00:00:46;;;;;;;8.20;4.45;;;;;;;-1.37;74.71;98222.45;1791209;78;21541;-38
2022/01/22 00:03:13;;;;;;;9.25;4.45;;;;;;;-1.34;74.62;98223.70;1775329;79;20981;-38
2022/01/22 00:05:40;;;;;;;6.45;4.20;;;;;;;-1.35;74.62;98221.59;1800991;79;21514;-39
2022/01/22 00:08:07;;;;;;;8.35;4.45;;;;;;;-1.71;74.55;98160.45;1791071;80;21081;-38
2022/01/22 00:10:34;;;;;;;7.62;4.15;;;;;;;-1.34;74.59;98223.16;1783416;80;21012;-39
2022/01/22 00:15:30;;;;;;;9.10;4.20;;;;;;;-1.31;75.05;98229.17;1775276;80;21039;-38
2022/01/22 00:17:57;;;;;;;10.18;4.50;;;;;;;-1.31;75.01;98224.44;1801284;79;21062;-39
2022/01/22 00:20:26;;;;;;;9.53;4.58;;;;;;;-1.31;74.93;98223.86;1779857;80;21079;-38
2022/01/22 00:22:53;;;;;;;7.40;3.75;;;;;;;-1.35;74.93;98230.89;1782084;80;20998;-39
2022/01/22 00:25:21;;;;;;;8.85;4.20;;;;;;;-1.33;74.92;98235.91;1766217;80;21022;-39
2022/01/22 00:27:49;;;;;;;11.25;4.50;;;;;;;-1.34;74.82;98235.13;1776355;80;21012;-39
2022/01/22 00:30:22;;;;;;;9.08;3.80;;;;;;;-1.32;74.57;98226.30;1788695;80;21008;-39
2022/01/22 00:32:50;;;;;;;6.60;3.70;;;;;;;-1.32;74.49;98226.84;1786255;80;21101;-38
2022/01/22 00:35:17;;;;;;;7.53;4.25;;;;;;;-1.29;74.30;98232.08;1766661;80;21040;-38
2022/01/22 00:37:47;;;;;;;11.18;4.00;;;;;;;-1.27;74.21;98227.25;1792068;80;21479;-39
2022/01/22 00:40:15;;;;;;;7.40;3.72;;;;;;;-1.26;74.06;98231.48;1795699;79;21111;-38
2022/01/22 00:42:43;;;;;;;6.83;3.62;;;;;;;-1.26;73.96;98230.16;1773606;80;21478;-39
2022/01/22 00:45:11;;;;;;;8.63;3.85;;;;;;;-1.31;73.98;98227.84;1781086;80;21099;-39
2022/01/22 00:47:39;;;;;;;7.53;3.60;;;;;;;-1.27;74.01;98225.92;1780680;80;21095;-38
2022/01/22 00:50:11;;;;;;;8.65;3.37;;;;;;;-1.27;74.01;98217.94;1787162;80;21542;-39
2022/01/22 00:52:41;;;;;;;6.90;3.45;;;;;;;-1.27;73.91;98220.60;1785619;79;20940;-38
2022/01/22 00:55:09;;;;;;;6.53;3.42;;;;;;;-1.29;73.89;98228.09;1790778;79;21063;-39
2022/01/22 00:57:36;;;;;;;6.65;3.22;;;;;;;-1.35;74.05;98229.56;1773474;80;21056;-39
2022/01/22 01:00:05;;;;;;;9.68;3.85;;;;;;;-1.36;74.14;98226.69;1789685;78;21052;-38
2022/01/22 01:02:35;;;;;;;7.53;3.98;;;;;;;-1.38;74.11;98227.53;1820144;77;21000;-38
2022/01/22 01:05:05;;;;;;;8.98;3.40;;;;;;;-1.37;74.04;98230.44;1814720;78;21001;-38
2022/01/22 01:07:32;;;;;;;6.47;3.37;;;;;;;-1.42;74.14;98231.91;1809512;79;20996;-39
2022/01/22 01:09:58;;;;;;;7.28;3.50;;;;;;;-1.41;74.07;98228.16;1796716;79;21132;-39
2022/01/22 01:12:25;;;;;;;6.58;3.50;;;;;;;-1.43;74.15;98226.34;1783470;79;20967;-38
2022/01/22 01:15:12;;;;;;;6.08;3.40;;;;;;;-1.42;74.25;98225.80;1796170;79;20976;-38
2022/01/22 01:17:56;;;;;;;8.33;3.35;;;;;;;-1.40;74.16;98229.70;1807360;79;21287;-39
2022/01/22 01:33:55;;;;;;;6.45;2.98;;;;;;;-1.53;74.22;98217.86;1779593;80;21037;-38
2022/01/22 01:36:14;;;;;;;6.62;3.80;;;;;;;-1.52;74.10;98225.53;1817360;77;21136;-38
2022/01/22 01:38:45;;;;;;;7.45;3.47;;;;;;;-1.50;73.96;98228.66;1790854;79;21033;-38
2022/01/22 01:41:19;;;;;;;6.50;3.10;;;;;;;-1.53;74.00;98234.59;1803577;78;21078;-39
2022/01/22 01:43:38;;;;;;;3.67;2.73;;;;;;;-1.54;73.88;98240.20;1798019;79;21020;-39
2022/01/22 01:46:29;;;;;;;7.08;3.62;;;;;;;-1.60;74.01;98244.11;1816576;78;21655;-40
2022/01/22 01:48:53;;;;;;;4.87;2.85;;;;;;;-1.61;74.04;98239.88;1808853;79;21135;-39
2022/01/22 01:51:22;;;;;;;6.20;3.30;;;;;;;-1.60;74.02;98245.44;1797865;79;21008;-39
2022/01/22 01:59:10;;;;;;;5.90;3.50;;;;;;;-1.58;73.98;98245.36;1802562;77;21001;-39
2022/01/22 02:01:37;;;;;;;6.60;3.05;;;;;;;-1.60;73.98;98248.10;1805865;78;21787;-39
2022/01/22 02:04:05;;;;;;;9.38;3.58;;;;;;;-1.64;74.12;98249.23;1809634;78;21016;-39
2022/01/22 02:06:32;;;;;;;6.55;3.25;;;;;;;-1.66;74.28;98244.00;1789753;78;21024;-39
2022/01/22 02:08:58;;;;;;;5.40;3.40;;;;;;;-1.65;74.22;98249.56;1789547;78;20964;-39
2022/01/22 02:11:27;;;;;;;6.12;3.50;;;;;;;-1.69;74.45;98246.72;1815838;77;21048;-39
2022/01/22 02:25:20;;;;;;;7.15;2.85;;;;;;;-1.56;74.35;98255.70;1793968;78;21091;-40
2022/01/22 02:27:47;;;;;;;6.15;3.17;;;;;;;-1.58;74.31;98253.33;1788982;78;21950;-40
2022/01/22 02:30:22;;;;;;;6.37;3.10;;;;;;;-1.60;74.34;98247.56;1819317;78;20964;-40
2022/01/22 02:35:37;;;;;;;7.15;2.80;;;;;;;-1.57;74.29;98256.23;1785355;78;20972;-40
2022/01/22 02:38:05;;;;;;;6.25;2.80;;;;;;;-1.52;74.14;98266.73;1801275;78;20950;-39
2022/01/22 02:40:32;;;;;;;8.80;2.85;;;;;;;-1.49;73.94;98259.46;1804008;78;21143;-39
2022/01/22 02:42:59;;;;;;;6.40;2.75;;;;;;;-1.47;73.82;98258.63;1839592;77;20964;-39
2022/01/22 02:45:26;;;;;;;6.45;2.85;;;;;;;-1.48;73.79;98265.02;1768204;78;21032;-39
2022/01/22 02:47:54;;;;;;;7.83;3.08;;;;;;;-1.43;73.55;98259.57;1820309;78;20941;-39
2022/01/22 02:50:21;;;;;;;4.55;2.60;;;;;;;-1.41;73.27;98258.73;1821623;78;20972;-39
2022/01/22 02:52:47;;;;;;;6.00;2.70;;;;;;;-1.40;73.12;98254.17;1804065;78;21085;-39
2022/01/22 02:55:14;;;;;;;4.92;2.90;;;;;;;-1.40;72.95;98252.30;1807792;78;21511;-39
2022/01/22 02:57:45;;;;;;;7.17;2.60;;;;;;;-1.43;72.88;98248.94;1788159;80;21004;-40
2022/01/22 03:00:17;;;;;;;5.28;2.65;;;;;;;-1.40;72.77;98252.84;1779233;80;21004;-40
2022/01/22 03:02:44;;;;;;;5.90;3.12;;;;;;;-1.42;72.76;98261.14;1803085;79;21064;-40
2022/01/22 03:05:11;;;;;;;5.05;2.67;;;;;;;-1.40;72.53;98259.48;1810036;79;21073;-40
2022/01/22 03:07:39;;;;;;;7.15;2.90;;;;;;;-1.39;72.40;98258.41;1822554;78;20914;-40
2022/01/22 03:10:09;;;;;;;5.85;2.67;;;;;;;-1.40;72.27;98264.27;1794023;79;21547;-40
2022/01/22 03:28:04;;;;;;;6.95;3.10;;;;;;;-1.39;71.17;98268.49;1799647;79;21542;-40
2022/01/22 03:30:32;;;;;;;6.55;3.15;;;;;;;-1.42;71.06;98267.79;1786737;78;21126;-39
2022/01/22 03:32:58;;;;;;;5.47;2.52;;;;;;;-1.36;70.93;98267.89;1790634;77;21475;-39
2022/01/22 03:35:28;;;;;;;5.72;2.42;;;;;;;-1.33;70.73;98274.45;1783891;80;21062;-39
2022/01/22 03:37:58;;;;;;;7.12;3.02;;;;;;;-1.37;70.63;98271.64;1790390;79;21012;-40
2022/01/22 03:40:28;;;;;;;6.05;2.30;;;;;;;-1.35;70.50;98273.42;1768606;79;21103;-40
2022/01/22 03:42:56;;;;;;;3.72;2.20;;;;;;;-1.35;70.47;98281.41;1795892;79;21544;-40
2022/01/22 03:45:23;;;;;;;6.47;2.47;;;;;;;-1.31;70.20;98278.94;1809029;77;21004;-39
2022/01/22 03:47:50;;;;;;;5.80;2.40;;;;;;;-1.28;69.87;98280.18;1794381;79;21488;-39
2022/01/22 03:50:22;;;;;;;4.87;2.50;;;;;;;-1.33;69.71;98281.89;1785711;78;21342;-40
2022/01/22 03:52:48;;;;;;;2.80;1.77;;;;;;;-1.35;69.53;98276.63;1761987;80;21031;-39
2022/01/22 03:55:37;;;;;;;6.65;2.27;;;;;;;-1.43;69.64;98282.16;1790418;77;21085;-39
2022/01/22 03:57:57;;;;;;;5.60;2.20;;;;;;;-1.41;69.58;98277.87;1786059;77;20968;-39
2022/01/22 04:00:24;;;;;;;3.25;2.20;;;;;;;-1.43;69.52;98283.49;1813233;79;21012;-39
2022/01/22 04:05:52;;;;;;;5.85;2.30;;;;;;;-1.52;69.60;98286.66;1791873;79;21017;-40
2022/01/22 04:08:13;;;;;;;4.70;2.00;;;;;;;-1.55;69.54;98283.27;1787679;79;21128;-40
2022/01/22 04:10:36;;;;;;;4.03;2.35;;;;;;;-1.57;69.63;98298.76;1801559;79;20981;-40
2022/01/22 04:13:07;;;;;;;5.80;2.45;;;;;;;-1.57;69.64;98294.77;1808126;79;20960;-39
2022/01/22 04:15:35;;;;;;;3.92;2.30;;;;;;;-1.54;69.55;98302.13;1795899;79;21024;-39
2022/01/22 04:26:32;;;;;;;4.95;2.30;;;;;;;-1.50;69.63;98312.38;1790436;77;21068;-39
2022/01/22 04:28:48;;;;;;;6.53;2.50;;;;;;;-1.50;69.53;98305.73;1782045;78;21089;-39
2022/01/22 04:31:14;;;;;;;4.55;2.22;;;;;;;-1.45;69.46;98307.47;1780609;78;21064;-40
2022/01/22 04:33:42;;;;;;;5.28;2.20;;;;;;;-1.41;69.29;98294.62;1792782;79;21886;-39
2022/01/22 04:36:09;;;;;;;5.00;2.40;;;;;;;-1.43;68.97;98306.09;1773121;79;20973;-39
2022/01/22 04:38:37;;;;;;;7.67;2.30;;;;;;;-1.40;69.00;98308.13;1775717;79;21088;-39
2022/01/22 04:41:04;;;;;;;3.87;2.25;;;;;;;-1.38;68.71;98308.61;1811546;78;21015;-39
2022/01/22 04:43:34;;;;;;;4.87;2.17;;;;;;;-1.42;68.67;98314.31;1791042;78;20997;-39
2022/01/22 04:48:43;;;;;;;7.72;2.12;;;;;;;-1.43;68.61;98308.75;1783337;78;21628;-40
2022/01/22 04:56:44;;;;;;;5.40;2.20;;;;;;;-1.37;68.08;98314.72;1824202;78;21510;-40
2022/01/22 04:59:11;;;;;;;3.02;1.65;;;;;;;-1.36;67.82;98314.42;1820685;78;21917;-40
2022/01/22 05:01:38;;;;;;;3.55;1.60;;;;;;;-1.37;67.80;98326.14;1808378;78;20928;-40
2022/01/22 05:04:19;;;;;;;4.22;2.15;;;;;;;-1.36;67.62;98321.61;1755651;78;21041;-40
2022/01/22 05:07:04;;;;;;;4.85;2.17;;;;;;;-1.35;67.77;98327.92;1805942;78;21079;-40
2022/01/22 05:09:32;;;;;;;5.80;2.25;;;;;;;-1.32;67.37;98330.53;1799746;78;21028;-40
2022/01/22 05:12:04;;;;;;;4.03;2.22;;;;;;;-1.29;67.37;98328.58;1821334;78;20900;-40
2022/01/22 05:14:33;;;;;;;4.40;2.35;;;;;;;-1.29;67.17;98323.27;1786781;78;21514;-40
2022/01/22 05:17:05;;;;;;;3.22;1.30;;;;;;;-1.26;66.78;98330.64;1797531;78;21059;-40
2022/01/22 05:22:06;;;;;;;3.17;1.95;;;;;;;-1.28;66.72;98329.37;1797327;79;21026;-40
2022/01/22 05:24:30;;;;;;;5.22;2.08;;;;;;;-1.31;66.85;98327.55;1794413;79;21135;-40
2022/01/22 05:27:20;;;;;;;3.83;1.82;;;;;;;-1.29;66.60;98327.80;1789514;79;21242;-40
2022/01/22 05:32:35;;;;;;;5.05;2.00;;;;;;;-1.27;66.81;98329.61;1784717;78;21043;-40
2022/01/22 05:37:58;;;;;;;3.72;2.02;;;;;;;-1.30;66.67;98328.34;1760403;80;21143;-40
2022/01/22 05:40:26;;;;;;;5.33;1.77;;;;;;;-1.29;66.54;98329.91;1806232;79;20972;-40
2022/01/22 05:42:53;;;;;;;3.70;1.80;;;;;;;-1.29;66.31;98335.77;1810293;79;21086;-40
2022/01/22 05:45:20;;;;;;;3.67;1.90;;;;;;;-1.35;66.48;98341.22;1786694;79;21006;-40
2022/01/22 05:47:46;;;;;;;5.00;2.50;;;;;;;-1.35;66.48;98345.20;1793632;78;21016;-40
2022/01/22 05:50:29;;;;;;;4.95;2.00;;;;;;;-1.34;66.16;98346.78;1828705;78;21873;-40
2022/01/22 05:52:54;;;;;;;4.78;2.00;;;;;;;-1.32;66.16;98352.59;1781746;79;21071;-40
2022/01/22 05:55:40;;;;;;;5.25;2.20;;;;;;;-1.32;66.18;98348.61;1790475;80;20972;-40
2022/01/22 06:00:34;;;;;;;6.50;1.75;;;;;;;-1.35;66.15;98351.85;1719455;80;21590;-41
2022/01/22 06:03:02;;;;;;;3.52;1.87;;;;;;;-1.40;66.25;98353.31;1752533;80;21143;-40
2022/01/22 06:05:30;;;;;;;5.53;2.08;;;;;;;-1.37;66.16;98366.02;1730423;82;21015;-40
2022/01/22 06:07:57;;;;;;;3.98;2.15;;;;;;;-1.36;66.20;98366.26;1752712;80;20930;-40
2022/01/22 06:10:32;;;;;;;3.77;1.82;;;;;;;-1.35;66.18;98369.67;1760562;80;21015;-40
2022/01/22 06:15:21;;;;;;;5.60;1.85;;;;;;;-1.35;66.06;98369.67;1754202;80;21130;-40
2022/01/22 06:17:50;;;;;;;4.20;2.15;;;;;;;-1.33;65.98;98372.28;1780272;80;20988;-40
2022/01/22 06:20:18;;;;;;;7.85;2.20;;;;;;;-1.33;65.96;98374.16;1781790;80;21032;-40
2022/01/22 06:22:45;;;;;;;4.75;2.00;;;;;;;-1.36;65.97;98374.78;1795186;79;21020;-40
2022/01/22 06:25:12;;;;;;;4.58;1.90;;;;;;;-1.36;65.97;98374.23;1798488;79;20977;-40
2022/01/22 06:27:39;;;;;;;9.33;2.60;;;;;;;-1.39;66.10;98378.81;1772017;80;21861;-40
2022/01/22 06:30:07;;;;;;;5.33;2.50;;;;;;;-1.38;66.25;98380.39;1790143;80;21012;-40
2022/01/22 06:32:36;;;;;;;6.03;2.10;;;;;;;-1.36;66.28;98384.87;1782818;79;20976;-40
2022/01/22 06:35:04;;;;;;;4.55;2.08;;;;;;;-1.42;66.54;98380.77;1777194;80;20921;-40
2022/01/22 06:37:31;;;;;;;5.22;2.02;;;;;;;-1.41;66.59;98393.52;1783840;80;20981;-40
2022/01/22 06:42:50;;;;;;;5.75;2.20;;;;;;;-1.42;66.83;98387.41;1788282;80;20976;-40
2022/01/22 06:45:22;;;;;;;6.25;2.17;;;;;;;-1.41;66.92;98394.30;1775711;80;21010;-40
2022/01/22 06:47:50;;;;;;;6.22;2.60;;;;;;;-1.37;66.91;98391.27;1771623;79;21047;-40
2022/01/22 06:50:21;;;;;;;5.20;2.60;;;;;;;-1.34;66.72;98397.30;1786919;80;20973;-40
2022/01/22 06:53:02;;;;;;;4.20;2.50;;;;;;;-1.33;66.78;98395.42;1777545;80;21142;-40
2022/01/22 06:55:41;;;;;;;5.10;2.33;;;;;;;-1.34;66.54;98390.65;1786267;80;21044;-40
2022/01/22 06:58:00;;;;;;;4.75;2.22;;;;;;;-1.33;67.06;98395.42;1791195;80;21460;-40
2022/01/22 07:00:28;;;;;;;3.83;2.40;;;;;;;-1.29;66.60;98399.04;1775004;80;20965;-40
2022/01/22 07:03:01;;;;;;;5.65;2.52;;;;;;;-1.27;66.57;98402.73;1768035;80;21034;-40
2022/01/22 07:05:27;;;;;;;4.20;2.00;;;;;;;-1.24;66.38;98408.76;1778326;80;21143;-40
2022/01/22 07:08:12;;;;;;;5.08;2.52;;;;;;;-1.19;66.25;98408.09;1791387;79;21008;-40
2022/01/22 07:10:40;;;;;;;8.78;2.85;;;;;;;-1.24;66.20;98402.90;1792602;80;20913;-40
2022/01/22 07:13:07;;;;;;;7.53;2.95;;;;;;;-1.24;66.14;98411.42;1792666;80;20965;-40
2022/01/22 07:15:34;;;;;;;3.77;2.30;;;;;;;-1.20;66.36;98416.36;1789260;80;21795;-40
2022/01/22 07:18:04;;;;;;;5.45;2.77;;;;;;;-1.19;66.22;98415.28;1780482;79;21123;-40
2022/01/22 07:20:33;;;;;;;6.65;2.50;;;;;;;-1.18;66.12;98415.52;1762961;80;20953;-40
2022/01/22 07:23:12;;;;;;;6.28;2.90;;;;;;;-1.23;66.30;98411.12;1786461;79;20933;-40
2022/01/22 07:25:35;;;;;;;5.55;2.52;;;;;;;-1.22;66.21;98411.37;1771380;80;20961;-40
2022/01/22 07:28:06;;;;;;;5.12;2.90;;;;;;;-1.15;66.34;98412.24;1781145;79;21504;-40
2022/01/22 07:30:33;;;;;;;6.08;2.70;;;;;;;-1.14;66.21;98401.84;1789494;80;21821;-40
2022/01/22 07:33:00;;;;;;;6.20;2.50;;;;;;;-1.10;66.20;98412.11;1814356;78;21502;-40
2022/01/22 07:35:28;;;;;;;7.05;3.12;;;;;;;-1.10;66.21;98415.56;1819399;78;20972;-40
2022/01/22 07:37:57;;;;;;;8.93;4.35;;;;;;;-1.05;66.16;98413.31;1822759;78;20925;-40
2022/01/22 07:40:24;;;;;;;5.65;2.52;;;;;;;-0.97;65.91;98417.91;1818584;78;20997;-40
2022/01/22 07:42:59;;;;;;;6.92;2.87;;;;;;;-0.97;65.83;98419.23;1793083;78;21786;-40
2022/01/22 07:45:44;;;;;;;6.17;2.70;;;;;;;-0.96;65.75;98426.09;1787733;78;20992;-40
2022/01/22 07:48:12;;;;;;;6.40;3.12;;;;;;;-0.98;65.77;98421.65;1780226;79;21519;-40
2022/01/22 07:50:57;;;;;;;9.30;5.62;;;;;;;-0.99;65.78;98433.38;1792610;79;21104;-40
2022/01/22 07:53:25;;;;;;;6.50;3.87;;;;;;;-0.97;65.84;98441.84;1816280;79;21033;-40
2022/01/22 07:55:52;;;;;;;13.50;6.53;;;;;;;-0.97;65.92;98440.52;1812046;79;21118;-40
2022/01/22 07:58:19;;;;;;;7.28;3.42;;;;;;;-0.93;66.00;98445.46;1788058;79;21284;-40
2022/01/22 08:00:46;;;;;;;7.65;3.62;;;;;;;-0.89;65.90;98445.87;1794600;79;21535;-40
2022/01/22 08:03:13;;;;;;;8.98;3.50;;;;;;;-0.83;65.92;98451.06;1785964;79;20991;-40
2022/01/22 08:05:59;;;;;;;8.88;3.87;;;;;;;-0.79;65.68;98454.13;1795047;79;21475;-40
2022/01/22 08:08:45;;;;;;;8.35;3.55;;;;;;;-0.80;65.76;98455.75;1747122;82;21124;-40
2022/01/22 08:11:30;;;;;;;7.92;3.75;;;;;;;-0.77;65.48;98461.23;1734559;81;21540;-40
2022/01/22 08:13:57;;;;;;;7.37;4.22;;;;;;;-0.74;65.41;98459.31;1733712;80;21480;-40
2022/01/22 08:16:25;;;;;;;9.20;3.90;;;;;;;-0.70;65.41;98459.48;1748058;80;22094;-40
2022/01/22 08:18:52;;;;;;;8.30;3.98;;;;;;;-0.66;65.35;98459.09;1779219;80;21020;-41
2022/01/22 08:21:19;;;;;;;9.85;3.92;;;;;;;-0.61;65.20;98458.42;1781058;78;21997;-41
2022/01/22 08:24:06;;;;;;;7.75;3.50;;;;;;;-0.57;64.81;98459.37;1784403;79;21497;-40
2022/01/22 08:26:44;;;;;;;6.67;3.62;;;;;;;-0.59;64.84;98449.59;1791672;79;20996;-40
2022/01/22 08:29:09;;;;;;;6.62;3.58;;;;;;;-0.58;64.84;98460.45;1777881;79;21589;-40
2022/01/22 08:36:52;;;;;;;7.67;3.90;;;;;;;-0.42;64.93;98458.70;1785710;80;20893;-40
2022/01/22 08:39:19;;;;;;;7.40;3.52;;;;;;;-0.41;64.49;98444.30;1777789;79;20924;-40
2022/01/22 08:41:46;;;;;;;10.48;4.17;;;;;;;-0.37;64.24;98466.55;1781627;80;20969;-40
2022/01/22 08:44:13;;;;;;;7.12;3.75;;;;;;;-0.30;63.85;98464.23;1781092;80;21063;-40
2022/01/22 08:46:41;;;;;;;8.55;3.60;;;;;;;-0.28;63.55;98465.48;1780055;80;21930;-40
2022/01/22 08:49:08;;;;;;;6.47;3.50;;;;;;;-0.24;63.46;98473.08;1763064;80;21312;-40
2022/01/22 08:51:40;;;;;;;6.50;3.85;;;;;;;-0.20;63.56;98468.73;1760889;81;21003;-41
2022/01/22 08:54:09;;;;;;;6.28;3.62;;;;;;;-0.16;63.45;98478.20;1761836;81;21016;-40
2022/01/22 08:56:38;;;;;;;6.33;3.50;;;;;;;-0.19;63.84;98475.60;1775369;80;21237;-40
2022/01/22 08:59:05;;;;;;;4.47;3.33;;;;;;;-0.12;64.01;98483.15;1781374;78;21122;-40
2022/01/22 09:01:34;;;;;;;6.65;3.45;;;;;;;-0.10;63.26;98482.30;1792667;80;21038;-40
2022/01/22 09:04:02;;;;;;;6.35;3.70;;;;;;;-0.06;63.34;98477.92;1788641;80;20991;-40
2022/01/22 09:06:37;;;;;;;10.48;5.47;;;;;;;-0.03;63.58;98482.61;1783948;79;21064;-40
2022/01/22 09:09:10;;;;;;;7.22;3.80;;;;;;;-0.01;63.57;98485.77;1753272;79;21339;-40
2022/01/22 09:11:48;;;;;;;7.83;3.80;;;;;;;0.02;63.41;98486.47;1759040;81;21567;-40
2022/01/22 09:14:22;;;;;;;7.12;3.85;;;;;;;0.00;63.65;98491.34;1755205;79;21020;-40
2022/01/22 09:16:52;;;;;;;6.53;3.50;;;;;;;0.00;63.87;98480.68;1782381;79;21480;-40
2022/01/22 09:19:21;;;;;;;5.95;3.50;;;;;;;0.02;63.89;98483.80;1784035;79;21011;-40
2022/01/22 09:21:48;;;;;;;6.55;3.72;;;;;;;0.03;64.04;98485.38;1780102;79;21614;-40
2022/01/22 09:24:15;;;;;;;6.62;3.20;;;;;;;0.01;64.22;98486.22;1789474;79;21821;-40
2022/01/22 09:26:44;;;;;;;6.78;3.77;;;;;;;-0.03;63.83;98485.28;1816253;79;20964;-40
2022/01/22 09:29:12;;;;;;;7.67;3.50;;;;;;;-0.04;63.95;98484.48;1768209;78;20983;-40
2022/01/22 09:31:38;;;;;;;6.28;3.45;;;;;;;-0.06;63.94;98488.58;1769082;80;21524;-40
2022/01/22 09:34:07;;;;;;;6.05;3.25;;;;;;;-0.04;63.85;98487.70;1782530;80;21016;-40
2022/01/22 09:36:36;;;;;;;6.55;3.50;;;;;;;-0.06;64.08;98493.91;1761313;78;21904;-40
2022/01/22 09:39:07;;;;;;;10.03;3.58;;;;;;;0.03;64.27;98493.37;1756661;80;21471;-40
2022/01/22 09:41:38;;;;;;;8.73;4.03;;;;;;;0.11;64.21;98489.92;1761604;80;21513;-40
2022/01/22 09:44:12;;;;;;;8.20;3.95;;;;;;;0.26;63.74;98492.68;1771766;78;20966;-40
2022/01/22 09:46:58;;;;;;;8.30;4.15;;;;;;;0.34;63.42;98490.02;1794825;78;21869;-40
2022/01/22 09:49:42;;;;;;;6.97;3.92;;;;;;;0.43;63.58;98501.48;1684548;84;21148;-40
2022/01/22 09:52:10;;;;;;;9.60;4.33;;;;;;;0.41;63.03;98505.00;1774858;78;20965;-40
2022/01/22 09:54:45;;;;;;;9.00;3.65;;;;;;;0.41;63.02;98505.00;1806352;78;20991;-41
2022/01/22 09:57:16;;;;;;;6.00;3.10;;;;;;;0.46;62.98;98509.95;1799227;78;21065;-41
2022/01/22 09:59:46;;;;;;;6.75;3.80;;;;;;;0.52;62.78;98517.48;1803468;78;26542;-41
2022/01/22 10:02:17;;;;;;;6.67;3.33;;;;;;;0.55;62.87;98515.52;1765757;80;21136;-40
2022/01/22 10:04:48;;;;;;;6.62;3.65;;;;;;;0.58;62.91;98518.12;1783065;80;20998;-40
2022/01/22 10:07:31;;;;;;;6.83;3.70;;;;;;;0.52;63.03;98518.81;1656237;86;21567;-40
2022/01/22 10:10:06;;;;;;;6.95;3.58;;;;;;;0.35;63.77;98512.13;1752531;77;21079;-40
2022/01/22 10:12:50;;;;;;;8.78;3.98;;;;;;;0.20;64.30;98517.37;1807840;77;21573;-40
2022/01/22 10:15:21;;;;;;;7.47;3.77;;;;;;;0.07;65.04;98518.30;1799496;77;21527;-40
2022/01/22 10:17:55;;;;;;;7.40;3.80;;;;;;;0.02;65.84;98512.32;1811358;78;20988;-40
2022/01/22 10:20:39;;;;;;;6.97;3.80;;;;;;;-0.04;66.18;98511.68;1821597;78;21605;-40
2022/01/22 10:23:19;;;;;;;7.22;3.40;;;;;;;-0.14;66.83;98515.96;1821354;78;20997;-40
2022/01/22 10:25:49;;;;;;;6.97;3.72;;;;;;;-0.16;67.15;98519.50;1818462;77;21546;-41
2022/01/22 10:28:20;;;;;;;10.15;4.25;;;;;;;-0.20;67.58;98521.21;1810205;78;21815;-40
2022/01/22 10:30:45;;;;;;;7.30;4.12;;;;;;;-0.18;67.59;98518.47;1804094;79;20982;-40
2022/01/22 10:33:27;;;;;;;7.05;4.00;;;;;;;-0.20;67.40;98511.34;1801261;79;21570;-41
2022/01/22 10:36:16;;;;;;;9.80;4.03;;;;;;;-0.21;68.12;98514.31;1791566;79;21029;-41
2022/01/22 10:39:01;;;;;;;6.42;3.72;;;;;;;-0.25;67.68;98523.47;1780503;80;21048;-40
2022/01/22 10:41:41;;;;;;;6.42;3.42;;;;;;;-0.29;67.15;98515.84;1771659;80;21143;-40
2022/01/22 10:44:14;;;;;;;6.30;3.17;;;;;;;-0.30;67.02;98524.16;1767397;79;21270;-41
2022/01/22 10:49:23;;;;;;;8.03;4.53;;;;;;;-0.35;66.85;98525.08;1799937;79;21075;-41
2022/01/22 10:52:03;;;;;;;11.03;4.47;;;;;;;-0.33;67.37;98517.55;1815679;79;21009;-41
2022/01/22 10:54:33;;;;;;;10.65;5.12;;;;;;;-0.27;67.07;98524.86;1805189;79;21875;-41
2022/01/22 10:57:20;;;;;;;12.63;6.42;;;;;;;-0.24;66.58;98529.59;1791544;79;20933;-41
2022/01/22 10:59:55;;;;;;;8.68;4.22;;;;;;;-0.30;66.73;98525.48;1806426;79;21009;-40
2022/01/22 11:02:36;;;;;;;7.12;4.08;;;;;;;-0.29;66.91;98525.16;1792820;79;21488;-40
2022/01/22 11:05:04;;;;;;;6.80;3.55;;;;;;;-0.24;66.98;98529.02;1772653;80;21566;-41
2022/01/22 11:07:31;;;;;;;7.95;4.17;;;;;;;-0.18;67.09;98523.80;1791197;80;21114;-41
2022/01/22 11:09:58;;;;;;;7.40;3.92;;;;;;;-0.13;66.31;98520.20;1772808;80;21525;-40
2022/01/22 11:12:25;;;;;;;9.70;3.90;;;;;;;-0.14;66.07;98525.28;1761744;81;21008;-40
2022/01/22 11:14:52;;;;;;;7.85;4.33;;;;;;;-0.19;66.29;98522.77;1768534;80;21087;-41
2022/01/22 11:19:33;;;;;;;7.47;3.87;;;;;;;-0.17;66.56;98528.03;1793616;79;22474;-39
2022/01/22 11:22:08;;;;;;;6.90;4.03;;;;;;;-0.19;66.83;98528.09;1757778;81;20953;-38
2022/01/22 11:24:44;;;;;;;7.65;4.35;;;;;;;-0.05;66.58;98532.78;1756935;81;21142;-39
2022/01/22 11:27:15;;;;;;;8.98;4.37;;;;;;;0.11;66.02;98520.56;1753860;81;21568;-39
2022/01/22 11:29:58;;;;;;;8.73;4.80;;;;;;;0.21;65.68;98526.15;1755305;81;21003;-39
2022/01/22 11:32:28;;;;;;;7.97;4.60;;;;;;;0.27;65.00;98521.70;1754904;81;21542;-39
2022/01/22 11:35:01;;;;;;;10.18;4.53;;;;;;;0.26;65.29;98528.13;1752896;81;21013;-39
2022/01/22 11:37:43;;;;;;;9.60;4.20;;;;;;;0.29;64.94;98526.16;1748714;82;20957;-39
2022/01/22 11:40:16;;;;;;;;;;;;;;;0.29;64.79;98535.48;1756657;81;20957;-39
2022/01/22 11:43:12;;;;;;;10.55;4.65;;;;;;;0.27;64.47;98527.03;1723093;83;20130;-39
2022/01/22 11:45:44;;;;;;;8.78;4.28;;;;;;;0.18;65.01;98530.23;1723374;83;20897;-39
2022/01/22 11:48:18;;;;;;;8.98;4.17;;;;;;;0.20;64.91;98533.36;1723359;83;21024;-39
2022/01/22 11:50:48;;;;;;;9.53;4.20;;;;;;;0.19;65.34;98535.02;1698262;83;21777;-39
2022/01/22 11:53:30;;;;;;;8.13;3.87;;;;;;;0.10;66.13;98537.64;1694441;84;20991;-39
2022/01/22 11:56:25;;;;;;;8.90;4.72;;;;;;;0.07;66.81;98542.82;1694696;84;20984;-39
2022/01/22 11:59:00;;;;;;;;;;;;;;;0.09;67.32;98550.76;1727574;82;21001;-38
2022/01/22 12:01:50;;;;;;;6.22;3.70;;;;;;;0.13;67.41;98553.03;1711757;82;20176;-39
2022/01/22 12:04:16;;;;;;;6.45;4.00;;;;;;;0.11;66.82;98558.42;1686893;83;21157;-39
2022/01/22 12:07:08;;;;;;;7.03;3.92;;;;;;;0.11;66.86;98557.88;1714251;82;21052;-39
2022/01/22 12:10:15;;;;;;;3.98;2.02;;;;;;;0.17;67.03;98571.30;1698416;83;20992;-39
2022/01/22 12:15:36;;;;;;;3.47;1.20;;;;;;;0.19;66.84;98586.45;1697433;83;21122;-39
2022/01/22 12:18:13;;;;;;;2.30;1.70;;;;;;;0.07;66.65;98594.23;1701835;83;21194;-39
2022/01/22 12:23:19;;;;;;;1.90;1.02;;;;;;;-0.03;67.26;98604.63;1701521;84;21602;-40
2022/01/22 12:25:49;;;;;;;3.65;1.10;;;;;;;-0.04;66.99;98610.26;1708211;84;20918;-39
2022/01/22 12:28:38;;;;;;;;;;;;;;;-0.09;66.99;98598.41;1710551;84;21036;-40
2022/01/22 12:31:16;;;;;;;0.80;0.80;;;;;;;-0.09;67.02;98614.39;1689973;84;21134;-39
2022/01/22 12:33:48;;;;;;;1.12;0.98;;;;;;;-0.17;67.31;98616.48;1710484;83;21004;-39
2022/01/22 12:36:27;;;;;;;1.40;0.95;;;;;;;-0.08;67.21;98610.09;1679052;85;21481;-40
2022/01/22 12:39:07;;;;;;;1.77;0.93;;;;;;;-0.05;67.26;98609.47;1719413;83;20981;-39
2022/01/22 12:41:46;;;;;;;1.87;1.40;;;;;;;0.05;66.97;98607.08;1743326;82;20992;-39
2022/01/22 12:44:29;;;;;;;3.22;1.92;;;;;;;0.09;67.02;98610.72;1718583;81;21144;-40
2022/01/22 12:46:59;;;;;;;1.60;1.00;;;;;;;0.17;66.99;98615.28;1702554;84;21025;-39
2022/01/22 12:49:28;;;;;;;1.77;1.27;;;;;;;0.22;66.67;98617.80;1693578;82;21088;-39
2022/01/22 12:52:04;;;;;;;2.95;1.87;;;;;;;0.29;66.33;98622.13;1683537;83;21054;-40
2022/01/22 12:54:38;;;;;;;2.58;1.75;;;;;;;0.32;66.10;98632.19;1741869;82;20958;-39
2022/01/22 12:57:07;;;;;;;3.10;1.82;;;;;;;0.32;65.48;98633.52;1741259;82;21180;-39
2022/01/22 13:00:01;;;;;;;1.90;1.17;;;;;;;0.31;65.23;98641.27;1739475;82;20985;-39
2022/01/22 13:02:37;;;;;;;2.42;1.57;;;;;;;0.23;65.12;98642.59;1743005;81;21010;-39
2022/01/22 13:05:05;;;;;;;4.42;1.50;;;;;;;0.10;65.36;98652.23;1729992;82;21021;-39
2022/01/22 13:07:45;;;;;;;2.33;1.25;;;;;;;0.07;65.58;98652.08;1685141;83;21009;-39
2022/01/22 13:10:34;;;;;;;2.20;1.57;;;;;;;0.03;65.78;98661.78;1696428;83;21900;-39
2022/01/22 13:13:02;;;;;;;3.27;1.90;;;;;;;0.05;66.02;98661.70;1734177;80;21024;-40
2022/01/22 13:15:30;;;;;;;5.80;1.92;;;;;;;0.03;65.67;98661.23;1736339;80;20994;-40
2022/01/22 13:18:01;;;;;;;5.28;2.30;;;;;;;-0.03;65.90;98664.58;1698180;83;21051;-40
2022/01/22 13:20:32;;;;;;;4.80;2.12;;;;;;;-0.04;66.02;98667.54;1714611;83;21043;-39
2022/01/22 13:23:02;;;;;;;3.77;2.25;;;;;;;-0.05;66.31;98673.41;1750118;82;21132;-39
2022/01/22 13:25:27;;;;;;;5.12;2.37;;;;;;;-0.03;66.41;98676.57;1750879;81;21049;-40
2022/01/22 13:28:11;;;;;;;4.42;2.00;;;;;;;-0.03;66.61;98681.11;1751102;82;21037;-40
2022/01/22 13:30:40;;;;;;;3.65;2.08;;;;;;;-0.05;66.62;98687.30;1714135;83;21072;-40
2022/01/22 13:34:15;;;;;;;4.50;2.02;;;;;;;-0.11;66.41;98694.64;1709937;83;21063;-39
2022/01/22 13:49:27;;;;;;;4.28;2.62;;;;;;;-0.68;63.45;98718.93;1654886;86;21121;-40
2022/01/22 13:51:56;;;;;;;4.33;2.47;;;;;;;-0.71;63.48;98712.07;1683178;82;20973;-40